sensor_id;sensor_type;location;lat;lon;timestamp;pressure;altitude;pressure_sealevel;temperature;humidity
68380;BME280;57711;53.196;19.638;2023-03-20T00:02:15;100127.52;;;8.58;53.33
68380;BME280;57711;53.196;19.638;2023-03-20T00:04:44;100130.67;;;8.55;53.43
68380;BME280;57711;53.196;19.638;2023-03-20T00:07:11;100133.20;;;8.53;53.45
68380;BME280;57711;53.196;19.638;2023-03-20T00:09:38;100127.52;;;8.54;53.55
68380;BME280;57711;53.196;19.638;2023-03-20T00:12:05;100123.81;;;8.55;53.26
68380;BME280;57711;53.196;19.638;2023-03-20T00:14:33;100124.55;;;8.55;53.52
68380;BME280;57711;53.196;19.638;2023-03-20T00:17:00;100127.30;;;8.57;53.53
68380;BME280;57711;53.196;19.638;2023-03-20T00:19:28;100123.05;;;8.56;53.60
68380;BME280;57711;53.196;19.638;2023-03-20T00:21:55;100123.46;;;8.57;53.43
68380;BME280;57711;53.196;19.638;2023-03-20T00:24:24;100122.52;;;8.58;53.63
68380;BME280;57711;53.196;19.638;2023-03-20T00:26:52;100119.36;;;8.57;53.56
68380;BME280;57711;53.196;19.638;2023-03-20T00:29:28;100115.20;;;8.57;53.71
68380;BME280;57711;53.196;19.638;2023-03-20T00:31:57;100111.90;;;8.56;53.81
68380;BME280;57711;53.196;19.638;2023-03-20T00:34:27;100110.35;;;8.53;53.55
68380;BME280;57711;53.196;19.638;2023-03-20T00:36:56;100108.30;;;8.46;53.77
68380;BME280;57711;53.196;19.638;2023-03-20T00:39:24;100108.11;;;8.42;53.70
68380;BME280;57711;53.196;19.638;2023-03-20T00:41:57;100107.55;;;8.38;53.60
68380;BME280;57711;53.196;19.638;2023-03-20T00:47:05;100109.96;;;8.30;53.75
68380;BME280;57711;53.196;19.638;2023-03-20T00:49:37;100110.82;;;8.26;53.86
68380;BME280;57711;53.196;19.638;2023-03-20T00:52:05;100107.86;;;8.25;54.00
68380;BME280;57711;53.196;19.638;2023-03-20T00:54:34;100106.29;;;8.25;53.80
68380;BME280;57711;53.196;19.638;2023-03-20T00:57:08;100107.68;;;8.25;53.81
68380;BME280;57711;53.196;19.638;2023-03-20T00:59:45;100107.83;;;8.26;53.93
68380;BME280;57711;53.196;19.638;2023-03-20T01:02:15;100108.12;;;8.26;53.65
68380;BME280;57711;53.196;19.638;2023-03-20T01:04:42;100105.45;;;8.26;53.86
68380;BME280;57711;53.196;19.638;2023-03-20T01:07:12;100102.73;;;8.24;53.80
68380;BME280;57711;53.196;19.638;2023-03-20T01:09:40;100102.02;;;8.22;53.86
68380;BME280;57711;53.196;19.638;2023-03-20T01:12:10;100100.30;;;8.19;53.84
68380;BME280;57711;53.196;19.638;2023-03-20T01:14:40;100097.44;;;8.16;53.80
68380;BME280;57711;53.196;19.638;2023-03-20T01:17:18;100099.52;;;8.12;53.81
68380;BME280;57711;53.196;19.638;2023-03-20T01:19:46;100102.06;;;8.08;53.82
68380;BME280;57711;53.196;19.638;2023-03-20T01:22:14;100106.27;;;8.05;53.88
68380;BME280;57711;53.196;19.638;2023-03-20T01:24:43;100102.37;;;8.02;54.08
68380;BME280;57711;53.196;19.638;2023-03-20T01:27:17;100102.00;;;8.00;54.20
68380;BME280;57711;53.196;19.638;2023-03-20T01:29:44;100097.55;;;7.97;54.10
68380;BME280;57711;53.196;19.638;2023-03-20T01:32:16;100095.16;;;7.93;54.00
68380;BME280;57711;53.196;19.638;2023-03-20T01:34:46;100094.94;;;7.89;54.10
68380;BME280;57711;53.196;19.638;2023-03-20T01:37:22;100092.62;;;7.87;54.18
68380;BME280;57711;53.196;19.638;2023-03-20T01:39:50;100091.73;;;7.87;54.17
68380;BME280;57711;53.196;19.638;2023-03-20T01:42:18;100089.80;;;7.86;54.07
68380;BME280;57711;53.196;19.638;2023-03-20T01:44:45;100090.42;;;7.85;54.10
68380;BME280;57711;53.196;19.638;2023-03-20T01:47:19;100087.50;;;7.85;54.04
68380;BME280;57711;53.196;19.638;2023-03-20T01:53:03;100091.99;;;7.83;54.11
68380;BME280;57711;53.196;19.638;2023-03-20T01:55:36;100088.99;;;7.81;54.07
68380;BME280;57711;53.196;19.638;2023-03-20T01:58:08;100086.45;;;7.77;54.27
68380;BME280;57711;53.196;19.638;2023-03-20T02:00:38;100087.41;;;7.73;54.30
68380;BME280;57711;53.196;19.638;2023-03-20T02:03:10;100082.13;;;7.70;54.23
68380;BME280;57711;53.196;19.638;2023-03-20T02:05:59;100083.17;;;7.66;54.29
68380;BME280;57711;53.196;19.638;2023-03-20T02:08:45;100085.98;;;7.62;54.27
68380;BME280;57711;53.196;19.638;2023-03-20T02:11:14;100081.23;;;7.58;54.32
68380;BME280;57711;53.196;19.638;2023-03-20T02:13:43;100083.20;;;7.54;54.28
68380;BME280;57711;53.196;19.638;2023-03-20T02:16:12;100082.56;;;7.50;54.20
68380;BME280;57711;53.196;19.638;2023-03-20T02:19:07;100076.24;;;7.48;54.51
68380;BME280;57711;53.196;19.638;2023-03-20T02:22:28;100073.77;;;7.48;54.52
68380;BME280;57711;53.196;19.638;2023-03-20T02:28:21;100074.44;;;7.46;54.41
68380;BME280;57711;53.196;19.638;2023-03-20T02:31:32;100067.58;;;7.47;54.54
68380;BME280;57711;53.196;19.638;2023-03-20T02:37:22;100060.29;;;7.46;54.45
68380;BME280;57711;53.196;19.638;2023-03-20T02:48:10;100054.98;;;7.40;54.56
68380;BME280;57711;53.196;19.638;2023-03-20T02:50:57;100058.54;;;7.36;54.50
68380;BME280;57711;53.196;19.638;2023-03-20T03:01:42;100051.45;;;7.21;54.78
68380;BME280;57711;53.196;19.638;2023-03-20T03:04:21;100051.16;;;7.17;54.78
68380;BME280;57711;53.196;19.638;2023-03-20T03:06:51;100048.02;;;7.16;54.78
68380;BME280;57711;53.196;19.638;2023-03-20T03:09:24;100045.95;;;7.15;54.66
68380;BME280;57711;53.196;19.638;2023-03-20T03:12:00;100043.80;;;7.15;54.67
68380;BME280;57711;53.196;19.638;2023-03-20T03:14:42;100035.30;;;7.15;54.83
68380;BME280;57711;53.196;19.638;2023-03-20T03:17:15;100036.95;;;7.17;54.75
68380;BME280;57711;53.196;19.638;2023-03-20T03:19:46;100033.92;;;7.19;54.88
68380;BME280;57711;53.196;19.638;2023-03-20T03:22:16;100031.64;;;7.21;54.79
68380;BME280;57711;53.196;19.638;2023-03-20T03:24:46;100032.96;;;7.25;54.85
68380;BME280;57711;53.196;19.638;2023-03-20T03:27:24;100032.80;;;7.27;54.96
68380;BME280;57711;53.196;19.638;2023-03-20T03:30:18;100035.79;;;7.28;55.02
68380;BME280;57711;53.196;19.638;2023-03-20T03:32:50;100034.42;;;7.27;55.19
68380;BME280;57711;53.196;19.638;2023-03-20T03:35:20;100034.03;;;7.27;55.11
68380;BME280;57711;53.196;19.638;2023-03-20T03:40:40;100030.27;;;7.20;55.03
68380;BME280;57711;53.196;19.638;2023-03-20T03:43:22;100026.00;;;7.17;55.05
68380;BME280;57711;53.196;19.638;2023-03-20T03:46:00;100026.44;;;7.14;55.21
68380;BME280;57711;53.196;19.638;2023-03-20T03:48:34;100023.92;;;7.11;55.25
68380;BME280;57711;53.196;19.638;2023-03-20T03:51:11;100020.45;;;7.10;55.29
68380;BME280;57711;53.196;19.638;2023-03-20T03:53:56;100018.84;;;7.10;55.20
68380;BME280;57711;53.196;19.638;2023-03-20T03:56:27;100019.43;;;7.12;55.29
68380;BME280;57711;53.196;19.638;2023-03-20T03:58:59;100018.54;;;7.14;55.17
68380;BME280;57711;53.196;19.638;2023-03-20T04:01:30;100016.31;;;7.17;55.17
68380;BME280;57711;53.196;19.638;2023-03-20T04:04:06;100012.72;;;7.22;55.34
68380;BME280;57711;53.196;19.638;2023-03-20T04:06:35;100014.48;;;7.25;55.16
68380;BME280;57711;53.196;19.638;2023-03-20T04:09:05;100015.13;;;7.25;55.28
68380;BME280;57711;53.196;19.638;2023-03-20T04:11:32;100015.33;;;7.25;55.33
68380;BME280;57711;53.196;19.638;2023-03-20T04:14:01;100010.50;;;7.25;55.30
68380;BME280;57711;53.196;19.638;2023-03-20T04:16:29;100014.17;;;7.24;55.26
68380;BME280;57711;53.196;19.638;2023-03-20T04:18:56;100010.85;;;7.23;55.57
68380;BME280;57711;53.196;19.638;2023-03-20T04:21:24;100015.18;;;7.22;55.53
68380;BME280;57711;53.196;19.638;2023-03-20T04:23:51;100015.58;;;7.22;55.47
68380;BME280;57711;53.196;19.638;2023-03-20T04:26:21;100015.09;;;7.21;55.40
68380;BME280;57711;53.196;19.638;2023-03-20T04:28:49;100013.26;;;7.19;55.50
68380;BME280;57711;53.196;19.638;2023-03-20T04:31:33;100009.52;;;7.16;55.55
68380;BME280;57711;53.196;19.638;2023-03-20T04:34:20;100009.20;;;7.14;55.54
68380;BME280;57711;53.196;19.638;2023-03-20T04:37:13;100009.77;;;7.11;55.56
68380;BME280;57711;53.196;19.638;2023-03-20T04:39:47;100011.52;;;7.11;55.64
68380;BME280;57711;53.196;19.638;2023-03-20T04:42:14;100017.50;;;7.13;55.68
68380;BME280;57711;53.196;19.638;2023-03-20T04:44:42;100015.16;;;7.15;55.66
68380;BME280;57711;53.196;19.638;2023-03-20T04:47:09;100016.05;;;7.18;55.81
68380;BME280;57711;53.196;19.638;2023-03-20T04:49:40;100014.11;;;7.22;55.72
68380;BME280;57711;53.196;19.638;2023-03-20T04:52:07;100014.30;;;7.20;55.65
68380;BME280;57711;53.196;19.638;2023-03-20T04:54:37;100015.36;;;7.15;55.51
68380;BME280;57711;53.196;19.638;2023-03-20T04:57:05;100013.69;;;7.14;55.72
68380;BME280;57711;53.196;19.638;2023-03-20T04:59:32;100010.87;;;7.13;55.66
68380;BME280;57711;53.196;19.638;2023-03-20T05:02:00;100012.09;;;7.13;55.83
68380;BME280;57711;53.196;19.638;2023-03-20T05:04:27;100010.04;;;7.14;55.82
68380;BME280;57711;53.196;19.638;2023-03-20T05:06:55;100015.31;;;7.16;55.97
68380;BME280;57711;53.196;19.638;2023-03-20T05:09:27;100011.77;;;7.17;55.96
68380;BME280;57711;53.196;19.638;2023-03-20T05:11:55;100010.02;;;7.17;56.01
68380;BME280;57711;53.196;19.638;2023-03-20T05:14:41;100010.55;;;7.15;55.83
68380;BME280;57711;53.196;19.638;2023-03-20T05:17:35;100010.20;;;7.15;56.12
68380;BME280;57711;53.196;19.638;2023-03-20T05:20:22;100008.20;;;7.15;56.02
68380;BME280;57711;53.196;19.638;2023-03-20T05:23:16;100010.04;;;7.14;56.02
68380;BME280;57711;53.196;19.638;2023-03-20T05:26:03;100009.17;;;7.18;56.15
68380;BME280;57711;53.196;19.638;2023-03-20T05:28:30;100000.67;;;7.26;56.19
68380;BME280;57711;53.196;19.638;2023-03-20T05:31:20;100004.06;;;7.33;55.92
68380;BME280;57711;53.196;19.638;2023-03-20T05:34:08;100002.04;;;7.38;56.02
68380;BME280;57711;53.196;19.638;2023-03-20T05:36:43;100006.44;;;7.44;55.97
68380;BME280;57711;53.196;19.638;2023-03-20T05:39:31;100009.52;;;7.53;56.08
68380;BME280;57711;53.196;19.638;2023-03-20T05:42:04;100015.80;;;7.57;56.04
68380;BME280;57711;53.196;19.638;2023-03-20T05:44:40;100015.48;;;7.59;56.14
68380;BME280;57711;53.196;19.638;2023-03-20T05:47:46;100019.75;;;7.62;56.19
68380;BME280;57711;53.196;19.638;2023-03-20T05:50:13;100021.27;;;7.63;56.15
68380;BME280;57711;53.196;19.638;2023-03-20T05:52:54;100018.31;;;7.64;56.28
68380;BME280;57711;53.196;19.638;2023-03-20T05:55:27;100018.84;;;7.67;56.33
68380;BME280;57711;53.196;19.638;2023-03-20T05:58:27;100017.63;;;7.71;56.25
68380;BME280;57711;53.196;19.638;2023-03-20T06:01:19;100012.66;;;7.74;56.39
68380;BME280;57711;53.196;19.638;2023-03-20T06:04:25;100011.77;;;7.78;56.40
68380;BME280;57711;53.196;19.638;2023-03-20T06:07:04;100011.45;;;7.82;56.59
68380;BME280;57711;53.196;19.638;2023-03-20T06:09:33;100007.62;;;7.85;56.31
68380;BME280;57711;53.196;19.638;2023-03-20T06:12:03;100007.16;;;7.88;56.45
68380;BME280;57711;53.196;19.638;2023-03-20T06:14:30;100006.16;;;7.94;56.63
68380;BME280;57711;53.196;19.638;2023-03-20T06:17:00;100011.34;;;7.99;56.41
68380;BME280;57711;53.196;19.638;2023-03-20T06:19:27;100020.61;;;8.05;56.61
68380;BME280;57711;53.196;19.638;2023-03-20T06:21:54;100026.31;;;8.10;56.59
68380;BME280;57711;53.196;19.638;2023-03-20T06:24:23;100028.83;;;8.14;56.67
68380;BME280;57711;53.196;19.638;2023-03-20T06:26:50;100029.38;;;8.18;56.61
68380;BME280;57711;53.196;19.638;2023-03-20T06:29:18;100036.77;;;8.21;56.53
68380;BME280;57711;53.196;19.638;2023-03-20T06:31:46;100033.05;;;8.22;56.74
68380;BME280;57711;53.196;19.638;2023-03-20T06:34:21;100030.00;;;8.24;56.74
68380;BME280;57711;53.196;19.638;2023-03-20T06:36:48;100029.23;;;8.26;56.84
68380;BME280;57711;53.196;19.638;2023-03-20T06:39:18;100026.61;;;8.32;56.83
68380;BME280;57711;53.196;19.638;2023-03-20T06:41:46;100019.91;;;8.37;56.83
68380;BME280;57711;53.196;19.638;2023-03-20T06:44:13;100016.61;;;8.42;56.90
68380;BME280;57711;53.196;19.638;2023-03-20T06:46:59;100017.75;;;8.50;56.93
68380;BME280;57711;53.196;19.638;2023-03-20T06:49:26;100017.98;;;8.54;56.90
68380;BME280;57711;53.196;19.638;2023-03-20T06:51:54;100017.29;;;8.58;57.10
68380;BME280;57711;53.196;19.638;2023-03-20T06:54:25;100015.14;;;8.59;57.04
68380;BME280;57711;53.196;19.638;2023-03-20T06:56:53;100018.52;;;8.64;57.15
68380;BME280;57711;53.196;19.638;2023-03-20T06:59:20;100019.31;;;8.72;57.07
68380;BME280;57711;53.196;19.638;2023-03-20T07:01:48;100017.26;;;8.79;56.95
68380;BME280;57711;53.196;19.638;2023-03-20T07:04:15;100018.34;;;8.88;57.20
68380;BME280;57711;53.196;19.638;2023-03-20T07:06:47;100017.48;;;8.96;57.08
68380;BME280;57711;53.196;19.638;2023-03-20T07:09:14;100019.97;;;9.02;56.99
68380;BME280;57711;53.196;19.638;2023-03-20T07:11:43;100019.61;;;9.08;57.03
68380;BME280;57711;53.196;19.638;2023-03-20T07:14:11;100023.63;;;9.14;57.15
68380;BME280;57711;53.196;19.638;2023-03-20T07:16:45;100024.80;;;9.21;57.12
68380;BME280;57711;53.196;19.638;2023-03-20T07:19:12;100024.64;;;9.30;57.10
68380;BME280;57711;53.196;19.638;2023-03-20T07:21:42;100027.92;;;9.35;57.24
68380;BME280;57711;53.196;19.638;2023-03-20T07:24:09;100029.96;;;9.39;57.32
68380;BME280;57711;53.196;19.638;2023-03-20T07:26:37;100032.30;;;9.41;57.31
68380;BME280;57711;53.196;19.638;2023-03-20T07:29:04;100034.40;;;9.42;57.04
68380;BME280;57711;53.196;19.638;2023-03-20T07:31:32;100037.45;;;9.42;57.15
68380;BME280;57711;53.196;19.638;2023-03-20T07:34:25;100039.66;;;9.45;57.26
68380;BME280;57711;53.196;19.638;2023-03-20T07:36:53;100038.98;;;9.49;57.39
68380;BME280;57711;53.196;19.638;2023-03-20T07:39:21;100031.35;;;9.54;57.29
68380;BME280;57711;53.196;19.638;2023-03-20T07:42:08;100031.50;;;9.60;57.34
68380;BME280;57711;53.196;19.638;2023-03-20T07:44:41;100029.14;;;9.64;57.57
68380;BME280;57711;53.196;19.638;2023-03-20T07:47:09;100024.76;;;9.69;57.60
68380;BME280;57711;53.196;19.638;2023-03-20T07:49:37;100026.12;;;9.76;57.59
68380;BME280;57711;53.196;19.638;2023-03-20T07:52:07;100026.88;;;9.82;57.58
68380;BME280;57711;53.196;19.638;2023-03-20T07:54:34;100023.86;;;9.87;57.58
68380;BME280;57711;53.196;19.638;2023-03-20T07:57:01;100024.63;;;9.95;57.74
68380;BME280;57711;53.196;19.638;2023-03-20T07:59:31;100024.79;;;10.01;57.58
68380;BME280;57711;53.196;19.638;2023-03-20T08:01:58;100023.96;;;10.06;57.65
68380;BME280;57711;53.196;19.638;2023-03-20T08:04:26;100025.78;;;10.10;57.60
68380;BME280;57711;53.196;19.638;2023-03-20T08:06:53;100025.52;;;10.13;57.51
68380;BME280;57711;53.196;19.638;2023-03-20T08:09:21;100028.07;;;10.16;57.57
68380;BME280;57711;53.196;19.638;2023-03-20T08:11:48;100027.55;;;10.20;57.61
68380;BME280;57711;53.196;19.638;2023-03-20T08:14:15;100026.40;;;10.25;57.61
68380;BME280;57711;53.196;19.638;2023-03-20T08:16:42;100025.04;;;10.30;57.61
68380;BME280;57711;53.196;19.638;2023-03-20T08:19:09;100026.58;;;10.33;57.58
68380;BME280;57711;53.196;19.638;2023-03-20T08:21:36;100024.04;;;10.37;57.54
68380;BME280;57711;53.196;19.638;2023-03-20T08:24:03;100020.90;;;10.40;57.59
68380;BME280;57711;53.196;19.638;2023-03-20T08:26:31;100027.30;;;10.41;57.66
68380;BME280;57711;53.196;19.638;2023-03-20T08:28:58;100025.11;;;10.43;57.54
68380;BME280;57711;53.196;19.638;2023-03-20T08:31:25;100027.13;;;10.45;57.53
68380;BME280;57711;53.196;19.638;2023-03-20T08:33:54;100028.38;;;10.47;57.69
68380;BME280;57711;53.196;19.638;2023-03-20T08:36:22;100027.11;;;10.49;57.72
68380;BME280;57711;53.196;19.638;2023-03-20T08:38:49;100023.14;;;10.51;57.79
68380;BME280;57711;53.196;19.638;2023-03-20T08:41:17;100028.02;;;10.55;57.82
68380;BME280;57711;53.196;19.638;2023-03-20T08:43:44;100031.96;;;10.59;58.04
68380;BME280;57711;53.196;19.638;2023-03-20T08:46:12;100031.39;;;10.65;57.93
68380;BME280;57711;53.196;19.638;2023-03-20T08:48:39;100032.21;;;10.70;57.88
68380;BME280;57711;53.196;19.638;2023-03-20T08:51:06;100034.73;;;10.72;57.64
68380;BME280;57711;53.196;19.638;2023-03-20T08:53:34;100037.84;;;10.74;57.90
68380;BME280;57711;53.196;19.638;2023-03-20T08:56:02;100037.66;;;10.75;57.96
68380;BME280;57711;53.196;19.638;2023-03-20T08:58:29;100041.23;;;10.76;57.91
68380;BME280;57711;53.196;19.638;2023-03-20T09:00:56;100046.14;;;10.75;57.89
68380;BME280;57711;53.196;19.638;2023-03-20T09:03:25;100051.73;;;10.76;58.00
68380;BME280;57711;53.196;19.638;2023-03-20T09:05:51;100052.89;;;10.77;57.95
68380;BME280;57711;53.196;19.638;2023-03-20T09:08:19;100058.36;;;10.78;57.98
68380;BME280;57711;53.196;19.638;2023-03-20T09:10:47;100054.13;;;10.81;58.14
68380;BME280;57711;53.196;19.638;2023-03-20T09:13:18;100057.64;;;10.84;58.15
68380;BME280;57711;53.196;19.638;2023-03-20T09:15:54;100060.41;;;10.88;57.98
68380;BME280;57711;53.196;19.638;2023-03-20T09:18:22;100060.05;;;10.91;58.11
68380;BME280;57711;53.196;19.638;2023-03-20T09:20:50;100061.43;;;10.96;58.16
68380;BME280;57711;53.196;19.638;2023-03-20T09:23:18;100060.77;;;11.01;58.15
68380;BME280;57711;53.196;19.638;2023-03-20T09:25:46;100061.16;;;11.06;58.27
68380;BME280;57711;53.196;19.638;2023-03-20T09:28:13;100056.89;;;11.13;58.36
68380;BME280;57711;53.196;19.638;2023-03-20T09:30:41;100060.05;;;11.18;58.16
68380;BME280;57711;53.196;19.638;2023-03-20T09:33:09;100056.77;;;11.22;58.21
68380;BME280;57711;53.196;19.638;2023-03-20T09:35:37;100054.95;;;11.26;58.22
68380;BME280;57711;53.196;19.638;2023-03-20T09:38:04;100055.02;;;11.33;58.33
68380;BME280;57711;53.196;19.638;2023-03-20T09:40:52;100054.53;;;11.42;58.36
68380;BME280;57711;53.196;19.638;2023-03-20T09:48:40;100053.08;;;11.59;58.35
68380;BME280;57711;53.196;19.638;2023-03-20T09:53:48;100051.70;;;11.60;58.53
68380;BME280;57711;53.196;19.638;2023-03-20T09:56:22;100056.44;;;11.62;58.48
68380;BME280;57711;53.196;19.638;2023-03-20T09:58:54;100056.04;;;11.62;58.56
68380;BME280;57711;53.196;19.638;2023-03-20T10:01:25;100053.19;;;11.60;58.43
68380;BME280;57711;53.196;19.638;2023-03-20T10:03:59;100054.09;;;11.58;58.44
68380;BME280;57711;53.196;19.638;2023-03-20T10:06:27;100057.08;;;11.59;58.52
68380;BME280;57711;53.196;19.638;2023-03-20T10:08:54;100056.70;;;11.61;58.49
68380;BME280;57711;53.196;19.638;2023-03-20T10:22:57;100046.60;;;11.76;58.61
68380;BME280;57711;53.196;19.638;2023-03-20T10:25:30;100043.24;;;11.78;58.57
68380;BME280;57711;53.196;19.638;2023-03-20T10:28:06;100045.93;;;11.79;58.70
68380;BME280;57711;53.196;19.638;2023-03-20T10:31:10;100042.59;;;11.78;58.62
68380;BME280;57711;53.196;19.638;2023-03-20T10:38:58;100036.69;;;11.88;58.69
68380;BME280;57711;53.196;19.638;2023-03-20T10:41:32;100032.43;;;11.97;58.75
68380;BME280;57711;53.196;19.638;2023-03-20T10:44:01;100030.88;;;12.03;58.72
68380;BME280;57711;53.196;19.638;2023-03-20T10:46:33;100031.48;;;12.10;58.69
68380;BME280;57711;53.196;19.638;2023-03-20T10:49:28;100025.45;;;12.16;58.71
68380;BME280;57711;53.196;19.638;2023-03-20T10:52:00;100023.59;;;12.22;58.80
68380;BME280;57711;53.196;19.638;2023-03-20T10:54:39;100019.55;;;12.28;58.83
68380;BME280;57711;53.196;19.638;2023-03-20T10:57:14;100016.52;;;12.38;58.72
68380;BME280;57711;53.196;19.638;2023-03-20T10:59:46;100013.86;;;12.50;58.84
68380;BME280;57711;53.196;19.638;2023-03-20T11:02:17;100014.02;;;12.61;58.85
68380;BME280;57711;53.196;19.638;2023-03-20T11:04:45;100013.61;;;12.72;59.00
68380;BME280;57711;53.196;19.638;2023-03-20T11:07:23;100007.58;;;12.85;59.07
68380;BME280;57711;53.196;19.638;2023-03-20T11:12:41;100005.92;;;13.03;58.79
68380;BME280;57711;53.196;19.638;2023-03-20T11:15:30;100003.05;;;13.06;58.83
68380;BME280;57711;53.196;19.638;2023-03-20T11:18:05;99999.46;;;13.09;58.80
68380;BME280;57711;53.196;19.638;2023-03-20T11:20:38;100003.47;;;13.12;58.92
68380;BME280;57711;53.196;19.638;2023-03-20T11:23:06;100002.41;;;13.12;58.98
68380;BME280;57711;53.196;19.638;2023-03-20T11:25:44;100006.34;;;13.09;58.69
68380;BME280;57711;53.196;19.638;2023-03-20T11:28:25;100007.11;;;13.04;58.87
68380;BME280;57711;53.196;19.638;2023-03-20T11:30:58;100007.77;;;12.96;58.78
68380;BME280;57711;53.196;19.638;2023-03-20T11:33:33;100009.71;;;12.85;58.81
68380;BME280;57711;53.196;19.638;2023-03-20T11:36:10;100012.90;;;12.74;58.79
68380;BME280;57711;53.196;19.638;2023-03-20T11:38:44;100010.67;;;12.63;58.88
68380;BME280;57711;53.196;19.638;2023-03-20T11:41:22;100011.34;;;12.52;58.89
68380;BME280;57711;53.196;19.638;2023-03-20T11:43:50;100010.25;;;12.42;58.92
68380;BME280;57711;53.196;19.638;2023-03-20T11:46:20;100007.30;;;12.36;59.08
68380;BME280;57711;53.196;19.638;2023-03-20T11:49:19;100011.58;;;12.29;59.16
68380;BME280;57711;53.196;19.638;2023-03-20T11:51:47;100011.49;;;12.21;59.19
68380;BME280;57711;53.196;19.638;2023-03-20T11:54:22;100008.98;;;12.12;59.23
68380;BME280;57711;53.196;19.638;2023-03-20T11:56:56;100012.79;;;12.03;59.38
68380;BME280;57711;53.196;19.638;2023-03-20T11:59:28;100013.29;;;11.96;59.46
68380;BME280;57711;53.196;19.638;2023-03-20T12:01:57;100004.90;;;11.91;59.39
68380;BME280;57711;53.196;19.638;2023-03-20T12:04:30;100005.95;;;11.87;59.50
68380;BME280;57711;53.196;19.638;2023-03-20T12:07:05;100005.89;;;11.88;59.53
68380;BME280;57711;53.196;19.638;2023-03-20T12:09:49;100004.73;;;11.88;59.67
68380;BME280;57711;53.196;19.638;2023-03-20T12:12:27;100004.80;;;11.90;59.67
68380;BME280;57711;53.196;19.638;2023-03-20T12:22:41;100004.34;;;11.93;59.84
68380;BME280;57711;53.196;19.638;2023-03-20T12:25:21;99999.21;;;11.95;59.82
68380;BME280;57711;53.196;19.638;2023-03-20T12:27:55;99998.98;;;11.98;59.82
68380;BME280;57711;53.196;19.638;2023-03-20T12:30:31;99992.24;;;11.98;59.70
68380;BME280;57711;53.196;19.638;2023-03-20T12:35:38;99985.55;;;11.96;59.75
68380;BME280;57711;53.196;19.638;2023-03-20T12:38:31;99983.04;;;11.94;59.79
68380;BME280;57711;53.196;19.638;2023-03-20T12:41:10;99979.15;;;11.93;59.88
68380;BME280;57711;53.196;19.638;2023-03-20T12:43:55;99984.50;;;11.94;59.86
68380;BME280;57711;53.196;19.638;2023-03-20T12:46:36;99976.84;;;11.96;60.01
68380;BME280;57711;53.196;19.638;2023-03-20T12:54:33;99977.14;;;11.99;60.23
68380;BME280;57711;53.196;19.638;2023-03-20T13:00:15;99975.48;;;12.03;60.34
68380;BME280;57711;53.196;19.638;2023-03-20T13:05:59;99971.86;;;12.14;60.28
68380;BME280;57711;53.196;19.638;2023-03-20T13:11:42;99968.09;;;12.22;60.27
68380;BME280;57711;53.196;19.638;2023-03-20T13:14:28;99961.34;;;12.24;60.44
68380;BME280;57711;53.196;19.638;2023-03-20T13:17:08;99958.60;;;12.26;60.40
68380;BME280;57711;53.196;19.638;2023-03-20T13:25:19;99948.90;;;12.52;60.58
68380;BME280;57711;53.196;19.638;2023-03-20T13:27:57;99943.03;;;12.63;60.58
68380;BME280;57711;53.196;19.638;2023-03-20T13:30:36;99940.80;;;12.71;60.27
68380;BME280;57711;53.196;19.638;2023-03-20T13:33:36;99935.14;;;12.77;60.57
68380;BME280;57711;53.196;19.638;2023-03-20T13:42:50;99932.92;;;13.05;60.45
68380;BME280;57711;53.196;19.638;2023-03-20T13:45:38;99934.09;;;13.06;60.26
68380;BME280;57711;53.196;19.638;2023-03-20T13:53:53;99929.51;;;12.94;60.13
68380;BME280;57711;53.196;19.638;2023-03-20T13:56:47;99929.95;;;12.92;60.47
68380;BME280;57711;53.196;19.638;2023-03-20T14:02:22;99927.02;;;12.92;60.42
68380;BME280;57711;53.196;19.638;2023-03-20T14:05:02;99915.57;;;12.92;60.25
68380;BME280;57711;53.196;19.638;2023-03-20T14:07:35;99917.63;;;12.95;60.22
68380;BME280;57711;53.196;19.638;2023-03-20T14:10:32;99916.18;;;12.98;60.40
68380;BME280;57711;53.196;19.638;2023-03-20T14:13:08;99920.13;;;13.02;60.55
68380;BME280;57711;53.196;19.638;2023-03-20T14:15:39;99918.91;;;13.05;60.25
68380;BME280;57711;53.196;19.638;2023-03-20T14:18:17;99915.83;;;13.07;60.23
68380;BME280;57711;53.196;19.638;2023-03-20T14:20:53;99913.58;;;13.06;60.36
68380;BME280;57711;53.196;19.638;2023-03-20T14:23:38;99909.89;;;13.03;60.26
68380;BME280;57711;53.196;19.638;2023-03-20T14:26:11;99911.05;;;12.99;60.24
68380;BME280;57711;53.196;19.638;2023-03-20T14:31:27;99904.60;;;12.90;60.43
68380;BME280;57711;53.196;19.638;2023-03-20T14:37:22;99896.20;;;12.90;60.26
68380;BME280;57711;53.196;19.638;2023-03-20T14:40:17;99893.10;;;13.00;60.60
68380;BME280;57711;53.196;19.638;2023-03-20T14:42:53;99893.98;;;13.09;60.52
68380;BME280;57711;53.196;19.638;2023-03-20T14:53:16;99877.42;;;12.99;60.46
68380;BME280;57711;53.196;19.638;2023-03-20T15:01:08;99864.75;;;13.01;60.51
68380;BME280;57711;53.196;19.638;2023-03-20T15:03:39;99859.42;;;13.05;60.54
68380;BME280;57711;53.196;19.638;2023-03-20T15:06:08;99861.86;;;13.09;60.47
68380;BME280;57711;53.196;19.638;2023-03-20T15:08:43;99862.01;;;13.11;60.59
68380;BME280;57711;53.196;19.638;2023-03-20T15:11:12;99867.02;;;13.15;60.47
68380;BME280;57711;53.196;19.638;2023-03-20T15:13:41;99870.94;;;13.17;60.47
68380;BME280;57711;53.196;19.638;2023-03-20T15:16:12;99876.25;;;13.17;60.42
68380;BME280;57711;53.196;19.638;2023-03-20T15:18:42;99881.16;;;13.15;60.47
68380;BME280;57711;53.196;19.638;2023-03-20T15:21:12;99881.73;;;13.12;60.47
68380;BME280;57711;53.196;19.638;2023-03-20T15:23:44;99879.78;;;13.08;60.42
68380;BME280;57711;53.196;19.638;2023-03-20T15:26:15;99881.19;;;13.02;60.67